sensor_id;sensor_type;location;lat;lon;timestamp;P1;durP1;ratioP1;P2;durP2;ratioP2
62151;SDS011;48139;47.474;19.034;2024-03-22T04:37:34;25.52;;;14.55;;
62151;SDS011;48139;47.474;19.034;2024-03-22T04:40:36;24.60;;;13.73;;
62151;SDS011;48139;47.474;19.034;2024-03-22T04:43:38;30.02;;;15.40;;
62151;SDS011;48139;47.474;19.034;2024-03-22T04:46:40;30.10;;;13.73;;
62151;SDS011;48139;47.474;19.034;2024-03-22T04:49:41;19.33;;;11.80;;
62151;SDS011;48139;47.474;19.034;2024-03-22T04:52:43;18.08;;;11.73;;
62151;SDS011;48139;47.474;19.034;2024-03-22T04:55:45;20.55;;;12.15;;
62151;SDS011;48139;47.474;19.034;2024-03-22T04:58:47;18.90;;;10.75;;
62151;SDS011;48139;47.474;19.034;2024-03-22T05:01:48;18.65;;;11.15;;
62151;SDS011;48139;47.474;19.034;2024-03-22T05:04:50;18.58;;;10.38;;
62151;SDS011;48139;47.474;19.034;2024-03-22T05:07:52;19.67;;;11.60;;
62151;SDS011;48139;47.474;19.034;2024-03-22T05:10:54;21.23;;;10.45;;
62151;SDS011;48139;47.474;19.034;2024-03-22T05:13:57;21.60;;;10.23;;
62151;SDS011;48139;47.474;19.034;2024-03-22T05:16:59;19.00;;;10.35;;
62151;SDS011;48139;47.474;19.034;2024-03-22T05:20:00;22.30;;;10.52;;
62151;SDS011;48139;47.474;19.034;2024-03-22T05:23:07;20.52;;;11.68;;
62151;SDS011;48139;47.474;19.034;2024-03-22T05:26:08;19.45;;;12.10;;
62151;SDS011;48139;47.474;19.034;2024-03-22T05:29:10;18.77;;;10.88;;
62151;SDS011;48139;47.474;19.034;2024-03-22T05:32:13;21.05;;;11.25;;
62151;SDS011;48139;47.474;19.034;2024-03-22T05:35:14;23.48;;;11.95;;
62151;SDS011;48139;47.474;19.034;2024-03-22T05:38:16;19.80;;;10.52;;
62151;SDS011;48139;47.474;19.034;2024-03-22T05:41:18;18.35;;;10.73;;
62151;SDS011;48139;47.474;19.034;2024-03-22T05:44:22;16.60;;;10.10;;
62151;SDS011;48139;47.474;19.034;2024-03-22T05:47:24;20.83;;;10.32;;
62151;SDS011;48139;47.474;19.034;2024-03-22T05:50:27;17.70;;;9.37;;
62151;SDS011;48139;47.474;19.034;2024-03-22T05:53:29;19.62;;;11.55;;
62151;SDS011;48139;47.474;19.034;2024-03-22T05:56:30;20.80;;;11.52;;
62151;SDS011;48139;47.474;19.034;2024-03-22T05:59:32;19.85;;;11.27;;
62151;SDS011;48139;47.474;19.034;2024-03-22T06:02:34;17.90;;;11.25;;
62151;SDS011;48139;47.474;19.034;2024-03-22T06:05:36;17.35;;;11.55;;
62151;SDS011;48139;47.474;19.034;2024-03-22T06:08:39;18.05;;;11.18;;
62151;SDS011;48139;47.474;19.034;2024-03-22T06:11:43;20.62;;;11.40;;
62151;SDS011;48139;47.474;19.034;2024-03-22T06:14:45;21.00;;;12.43;;
62151;SDS011;48139;47.474;19.034;2024-03-22T06:17:49;16.98;;;11.48;;
62151;SDS011;48139;47.474;19.034;2024-03-22T06:20:51;20.30;;;12.52;;
62151;SDS011;48139;47.474;19.034;2024-03-22T06:23:56;27.85;;;11.85;;
62151;SDS011;48139;47.474;19.034;2024-03-22T06:26:57;25.10;;;12.80;;
62151;SDS011;48139;47.474;19.034;2024-03-22T06:29:59;20.75;;;10.13;;
62151;SDS011;48139;47.474;19.034;2024-03-22T06:33:01;16.25;;;10.13;;
62151;SDS011;48139;47.474;19.034;2024-03-22T06:36:02;18.08;;;9.60;;
62151;SDS011;48139;47.474;19.034;2024-03-22T06:39:04;17.55;;;9.30;;
62151;SDS011;48139;47.474;19.034;2024-03-22T06:42:09;22.20;;;13.82;;
62151;SDS011;48139;47.474;19.034;2024-03-22T06:45:11;18.65;;;9.98;;
62151;SDS011;48139;47.474;19.034;2024-03-22T06:48:13;18.17;;;11.50;;
62151;SDS011;48139;47.474;19.034;2024-03-22T06:51:16;17.62;;;8.77;;
62151;SDS011;48139;47.474;19.034;2024-03-22T06:54:18;26.02;;;12.32;;
62151;SDS011;48139;47.474;19.034;2024-03-22T06:57:19;18.45;;;10.80;;
62151;SDS011;48139;47.474;19.034;2024-03-22T07:00:21;20.60;;;11.50;;
62151;SDS011;48139;47.474;19.034;2024-03-22T07:03:24;20.05;;;11.57;;
62151;SDS011;48139;47.474;19.034;2024-03-22T07:06:26;20.48;;;11.60;;
62151;SDS011;48139;47.474;19.034;2024-03-22T07:09:27;18.52;;;10.85;;
62151;SDS011;48139;47.474;19.034;2024-03-22T07:12:34;18.75;;;11.63;;
62151;SDS011;48139;47.474;19.034;2024-03-22T07:15:35;18.20;;;11.32;;
62151;SDS011;48139;47.474;19.034;2024-03-22T07:18:37;17.12;;;11.45;;
62151;SDS011;48139;47.474;19.034;2024-03-22T07:21:39;18.75;;;11.38;;
62151;SDS011;48139;47.474;19.034;2024-03-22T07:24:41;20.35;;;11.90;;
62151;SDS011;48139;47.474;19.034;2024-03-22T07:27:42;19.75;;;11.27;;
62151;SDS011;48139;47.474;19.034;2024-03-22T07:30:44;20.80;;;10.77;;
62151;SDS011;48139;47.474;19.034;2024-03-22T07:33:46;15.48;;;9.38;;
62151;SDS011;48139;47.474;19.034;2024-03-22T07:36:48;15.95;;;9.60;;
62151;SDS011;48139;47.474;19.034;2024-03-22T07:39:50;16.62;;;10.63;;
62151;SDS011;48139;47.474;19.034;2024-03-22T07:42:53;16.50;;;11.05;;
62151;SDS011;48139;47.474;19.034;2024-03-22T07:45:55;20.10;;;12.30;;
62151;SDS011;48139;47.474;19.034;2024-03-22T07:48:57;18.30;;;10.98;;
62151;SDS011;48139;47.474;19.034;2024-03-22T07:51:59;18.15;;;11.30;;
62151;SDS011;48139;47.474;19.034;2024-03-22T07:55:01;17.45;;;11.63;;
62151;SDS011;48139;47.474;19.034;2024-03-22T07:58:04;19.23;;;11.30;;
62151;SDS011;48139;47.474;19.034;2024-03-22T08:01:07;17.27;;;11.30;;
62151;SDS011;48139;47.474;19.034;2024-03-22T08:04:09;15.93;;;10.20;;
62151;SDS011;48139;47.474;19.034;2024-03-22T08:07:10;23.42;;;11.73;;
62151;SDS011;48139;47.474;19.034;2024-03-22T08:10:12;18.05;;;10.93;;
62151;SDS011;48139;47.474;19.034;2024-03-22T08:13:16;20.55;;;11.68;;
62151;SDS011;48139;47.474;19.034;2024-03-22T08:16:18;18.95;;;10.07;;
62151;SDS011;48139;47.474;19.034;2024-03-22T08:19:21;20.13;;;12.50;;
62151;SDS011;48139;47.474;19.034;2024-03-22T08:22:22;17.83;;;10.32;;
62151;SDS011;48139;47.474;19.034;2024-03-22T08:25:24;18.55;;;11.93;;
62151;SDS011;48139;47.474;19.034;2024-03-22T08:28:26;18.30;;;11.07;;
62151;SDS011;48139;47.474;19.034;2024-03-22T08:31:29;15.95;;;10.05;;
62151;SDS011;48139;47.474;19.034;2024-03-22T08:34:31;18.33;;;11.30;;
62151;SDS011;48139;47.474;19.034;2024-03-22T08:37:35;15.45;;;9.38;;
62151;SDS011;48139;47.474;19.034;2024-03-22T08:40:37;21.70;;;12.18;;
62151;SDS011;48139;47.474;19.034;2024-03-22T08:43:39;19.60;;;11.27;;
62151;SDS011;48139;47.474;19.034;2024-03-22T08:46:41;17.58;;;11.35;;
62151;SDS011;48139;47.474;19.034;2024-03-22T08:49:42;24.48;;;11.30;;
62151;SDS011;48139;47.474;19.034;2024-03-22T08:55:48;17.12;;;10.00;;
62151;SDS011;48139;47.474;19.034;2024-03-22T08:58:52;15.20;;;9.95;;
62151;SDS011;48139;47.474;19.034;2024-03-22T09:01:53;19.67;;;11.55;;
62151;SDS011;48139;47.474;19.034;2024-03-22T09:04:55;17.70;;;10.73;;
62151;SDS011;48139;47.474;19.034;2024-03-22T09:07:57;17.55;;;10.30;;
62151;SDS011;48139;47.474;19.034;2024-03-22T09:10:59;18.45;;;9.93;;
62151;SDS011;48139;47.474;19.034;2024-03-22T09:14:00;14.35;;;9.60;;
62151;SDS011;48139;47.474;19.034;2024-03-22T09:17:02;15.32;;;10.95;;
62151;SDS011;48139;47.474;19.034;2024-03-22T09:20:04;15.23;;;10.90;;
62151;SDS011;48139;47.474;19.034;2024-03-22T09:26:09;15.75;;;10.27;;
62151;SDS011;48139;47.474;19.034;2024-03-22T09:29:12;18.70;;;10.30;;
62151;SDS011;48139;47.474;19.034;2024-03-22T09:32:15;19.77;;;10.43;;
62151;SDS011;48139;47.474;19.034;2024-03-22T09:35:16;19.20;;;12.48;;
62151;SDS011;48139;47.474;19.034;2024-03-22T09:38:19;18.52;;;10.35;;
62151;SDS011;48139;47.474;19.034;2024-03-22T09:41:22;18.90;;;11.05;;
62151;SDS011;48139;47.474;19.034;2024-03-22T09:44:27;17.62;;;10.82;;
62151;SDS011;48139;47.474;19.034;2024-03-22T09:47:29;14.68;;;10.52;;
62151;SDS011;48139;47.474;19.034;2024-03-22T09:50:31;18.27;;;10.82;;
62151;SDS011;48139;47.474;19.034;2024-03-22T09:53:33;17.95;;;10.85;;
62151;SDS011;48139;47.474;19.034;2024-03-22T09:56:40;17.02;;;9.88;;
62151;SDS011;48139;47.474;19.034;2024-03-22T09:59:43;17.70;;;9.88;;
62151;SDS011;48139;47.474;19.034;2024-03-22T10:02:51;19.25;;;9.82;;
62151;SDS011;48139;47.474;19.034;2024-03-22T10:05:55;21.87;;;11.23;;
62151;SDS011;48139;47.474;19.034;2024-03-22T10:09:00;23.02;;;10.40;;
62151;SDS011;48139;47.474;19.034;2024-03-22T10:12:03;19.90;;;10.95;;
62151;SDS011;48139;47.474;19.034;2024-03-22T10:15:05;24.75;;;10.32;;
62151;SDS011;48139;47.474;19.034;2024-03-22T10:18:10;16.77;;;9.02;;
62151;SDS011;48139;47.474;19.034;2024-03-22T10:21:16;15.02;;;8.82;;
62151;SDS011;48139;47.474;19.034;2024-03-22T10:24:29;16.77;;;7.85;;
62151;SDS011;48139;47.474;19.034;2024-03-22T10:27:31;16.55;;;9.60;;
62151;SDS011;48139;47.474;19.034;2024-03-22T10:30:33;25.77;;;10.88;;
62151;SDS011;48139;47.474;19.034;2024-03-22T10:33:38;13.93;;;8.70;;
62151;SDS011;48139;47.474;19.034;2024-03-22T10:36:42;16.25;;;9.23;;
62151;SDS011;48139;47.474;19.034;2024-03-22T10:42:47;15.20;;;8.20;;
62151;SDS011;48139;47.474;19.034;2024-03-22T10:45:50;13.07;;;7.00;;
62151;SDS011;48139;47.474;19.034;2024-03-22T10:48:59;11.90;;;8.30;;
62151;SDS011;48139;47.474;19.034;2024-03-22T10:52:06;13.70;;;7.43;;
62151;SDS011;48139;47.474;19.034;2024-03-22T10:55:12;12.43;;;7.90;;
62151;SDS011;48139;47.474;19.034;2024-03-22T10:58:21;13.43;;;7.78;;
62151;SDS011;48139;47.474;19.034;2024-03-22T11:01:27;12.32;;;7.05;;
62151;SDS011;48139;47.474;19.034;2024-03-22T11:04:35;14.90;;;8.52;;
62151;SDS011;48139;47.474;19.034;2024-03-22T11:07:37;11.60;;;8.52;;
62151;SDS011;48139;47.474;19.034;2024-03-22T11:10:39;13.68;;;7.80;;
62151;SDS011;48139;47.474;19.034;2024-03-22T11:13:41;11.07;;;6.97;;
62151;SDS011;48139;47.474;19.034;2024-03-22T11:16:43;12.90;;;5.80;;
62151;SDS011;48139;47.474;19.034;2024-03-22T11:19:46;10.25;;;5.60;;
62151;SDS011;48139;47.474;19.034;2024-03-22T11:22:48;11.98;;;7.12;;
62151;SDS011;48139;47.474;19.034;2024-03-22T11:25:50;13.93;;;8.40;;
62151;SDS011;48139;47.474;19.034;2024-03-22T11:28:52;12.48;;;6.37;;
62151;SDS011;48139;47.474;19.034;2024-03-22T11:31:54;13.65;;;7.85;;
62151;SDS011;48139;47.474;19.034;2024-03-22T11:34:57;14.50;;;8.30;;
62151;SDS011;48139;47.474;19.034;2024-03-22T11:37:59;11.95;;;6.07;;
62151;SDS011;48139;47.474;19.034;2024-03-22T11:41:01;11.75;;;5.55;;
62151;SDS011;48139;47.474;19.034;2024-03-22T11:44:04;11.25;;;5.45;;
62151;SDS011;48139;47.474;19.034;2024-03-22T11:47:07;12.30;;;6.73;;
62151;SDS011;48139;47.474;19.034;2024-03-22T11:50:11;11.20;;;6.90;;
62151;SDS011;48139;47.474;19.034;2024-03-22T11:53:15;14.25;;;8.07;;
62151;SDS011;48139;47.474;19.034;2024-03-22T11:56:19;11.05;;;6.93;;
62151;SDS011;48139;47.474;19.034;2024-03-22T11:59:21;12.05;;;6.60;;
62151;SDS011;48139;47.474;19.034;2024-03-22T12:02:23;12.90;;;7.10;;
62151;SDS011;48139;47.474;19.034;2024-03-22T12:05:26;10.40;;;6.07;;
62151;SDS011;48139;47.474;19.034;2024-03-22T12:08:28;9.95;;;6.75;;
62151;SDS011;48139;47.474;19.034;2024-03-22T12:11:30;10.32;;;6.12;;
62151;SDS011;48139;47.474;19.034;2024-03-22T12:14:33;10.68;;;6.22;;
62151;SDS011;48139;47.474;19.034;2024-03-22T12:17:35;10.13;;;6.22;;
62151;SDS011;48139;47.474;19.034;2024-03-22T12:20:39;11.55;;;6.70;;
62151;SDS011;48139;47.474;19.034;2024-03-22T12:23:42;9.27;;;5.25;;
62151;SDS011;48139;47.474;19.034;2024-03-22T12:26:44;12.65;;;6.85;;
62151;SDS011;48139;47.474;19.034;2024-03-22T12:29:45;11.25;;;5.82;;
62151;SDS011;48139;47.474;19.034;2024-03-22T12:32:47;12.73;;;6.93;;
62151;SDS011;48139;47.474;19.034;2024-03-22T12:35:49;12.05;;;6.00;;
62151;SDS011;48139;47.474;19.034;2024-03-22T12:41:54;15.38;;;8.50;;
62151;SDS011;48139;47.474;19.034;2024-03-22T12:44:56;13.57;;;7.50;;
62151;SDS011;48139;47.474;19.034;2024-03-22T12:47:58;14.05;;;8.35;;
62151;SDS011;48139;47.474;19.034;2024-03-22T12:51:00;17.87;;;8.27;;
62151;SDS011;48139;47.474;19.034;2024-03-22T12:54:02;11.32;;;6.68;;
62151;SDS011;48139;47.474;19.034;2024-03-22T12:57:04;10.52;;;7.10;;
62151;SDS011;48139;47.474;19.034;2024-03-22T13:00:06;14.13;;;6.75;;
62151;SDS011;48139;47.474;19.034;2024-03-22T13:03:13;8.75;;;5.37;;
62151;SDS011;48139;47.474;19.034;2024-03-22T13:06:18;10.98;;;5.25;;
62151;SDS011;48139;47.474;19.034;2024-03-22T13:09:21;13.68;;;7.53;;
62151;SDS011;48139;47.474;19.034;2024-03-22T13:12:23;18.02;;;7.20;;
62151;SDS011;48139;47.474;19.034;2024-03-22T13:15:25;11.93;;;6.20;;
62151;SDS011;48139;47.474;19.034;2024-03-22T13:18:27;13.35;;;6.57;;
62151;SDS011;48139;47.474;19.034;2024-03-22T13:21:28;13.93;;;6.28;;
62151;SDS011;48139;47.474;19.034;2024-03-22T13:24:32;13.73;;;7.22;;
62151;SDS011;48139;47.474;19.034;2024-03-22T13:27:34;13.35;;;6.65;;
62151;SDS011;48139;47.474;19.034;2024-03-22T13:30:36;11.20;;;6.00;;
62151;SDS011;48139;47.474;19.034;2024-03-22T13:33:38;16.55;;;9.77;;
62151;SDS011;48139;47.474;19.034;2024-03-22T13:36:40;13.98;;;7.95;;
62151;SDS011;48139;47.474;19.034;2024-03-22T13:39:42;14.13;;;7.43;;
62151;SDS011;48139;47.474;19.034;2024-03-22T13:42:45;15.25;;;7.95;;
62151;SDS011;48139;47.474;19.034;2024-03-22T13:45:47;13.32;;;6.72;;
62151;SDS011;48139;47.474;19.034;2024-03-22T13:48:55;13.40;;;7.55;;
62151;SDS011;48139;47.474;19.034;2024-03-22T13:51:57;12.20;;;6.80;;
62151;SDS011;48139;47.474;19.034;2024-03-22T13:55:03;12.25;;;8.15;;
62151;SDS011;48139;47.474;19.034;2024-03-22T13:58:07;12.65;;;9.23;;
62151;SDS011;48139;47.474;19.034;2024-03-22T14:01:09;12.00;;;6.82;;
62151;SDS011;48139;47.474;19.034;2024-03-22T14:04:12;11.88;;;6.15;;
62151;SDS011;48139;47.474;19.034;2024-03-22T14:07:15;13.00;;;5.65;;
62151;SDS011;48139;47.474;19.034;2024-03-22T14:10:16;10.27;;;5.47;;
62151;SDS011;48139;47.474;19.034;2024-03-22T14:13:18;10.50;;;5.28;;
62151;SDS011;48139;47.474;19.034;2024-03-22T14:16:20;11.15;;;5.15;;
62151;SDS011;48139;47.474;19.034;2024-03-22T14:19:21;11.25;;;5.90;;
62151;SDS011;48139;47.474;19.034;2024-03-22T14:22:24;10.80;;;6.60;;
62151;SDS011;48139;47.474;19.034;2024-03-22T14:25:25;8.90;;;5.30;;
62151;SDS011;48139;47.474;19.034;2024-03-22T14:28:28;14.50;;;4.85;;
62151;SDS011;48139;47.474;19.034;2024-03-22T14:31:30;9.63;;;5.22;;
62151;SDS011;48139;47.474;19.034;2024-03-22T14:34:32;9.75;;;5.53;;
62151;SDS011;48139;47.474;19.034;2024-03-22T14:37:34;10.73;;;5.60;;
62151;SDS011;48139;47.474;19.034;2024-03-22T14:40:36;10.73;;;6.68;;
62151;SDS011;48139;47.474;19.034;2024-03-22T14:43:39;14.00;;;5.20;;
62151;SDS011;48139;47.474;19.034;2024-03-22T14:46:41;8.00;;;5.10;;
62151;SDS011;48139;47.474;19.034;2024-03-22T14:49:42;10.43;;;5.78;;
62151;SDS011;48139;47.474;19.034;2024-03-22T14:52:44;8.27;;;4.45;;
62151;SDS011;48139;47.474;19.034;2024-03-22T14:55:56;10.38;;;5.68;;
62151;SDS011;48139;47.474;19.034;2024-03-22T14:59:00;8.20;;;3.85;;
62151;SDS011;48139;47.474;19.034;2024-03-22T15:02:02;11.60;;;4.80;;
62151;SDS011;48139;47.474;19.034;2024-03-22T15:05:04;8.65;;;4.03;;
62151;SDS011;48139;47.474;19.034;2024-03-22T15:08:06;9.57;;;3.17;;
62151;SDS011;48139;47.474;19.034;2024-03-22T15:11:08;9.18;;;2.95;;
62151;SDS011;48139;47.474;19.034;2024-03-22T15:14:10;7.60;;;3.95;;
62151;SDS011;48139;47.474;19.034;2024-03-22T15:17:13;7.87;;;3.17;;
62151;SDS011;48139;47.474;19.034;2024-03-22T15:20:17;6.65;;;3.12;;
62151;SDS011;48139;47.474;19.034;2024-03-22T15:23:19;8.02;;;3.83;;
62151;SDS011;48139;47.474;19.034;2024-03-22T15:26:23;7.90;;;3.95;;
62151;SDS011;48139;47.474;19.034;2024-03-22T15:29:25;8.48;;;5.20;;
62151;SDS011;48139;47.474;19.034;2024-03-22T15:32:27;6.00;;;3.45;;
62151;SDS011;48139;47.474;19.034;2024-03-22T15:35:30;9.07;;;3.65;;
62151;SDS011;48139;47.474;19.034;2024-03-22T15:38:32;10.60;;;4.65;;
62151;SDS011;48139;47.474;19.034;2024-03-22T15:41:34;10.05;;;3.97;;
62151;SDS011;48139;47.474;19.034;2024-03-22T15:44:37;6.18;;;2.95;;
62151;SDS011;48139;47.474;19.034;2024-03-22T15:47:39;7.85;;;3.20;;
62151;SDS011;48139;47.474;19.034;2024-03-22T15:50:41;5.97;;;3.40;;
62151;SDS011;48139;47.474;19.034;2024-03-22T15:53:42;7.87;;;2.67;;
62151;SDS011;48139;47.474;19.034;2024-03-22T15:56:44;7.12;;;3.30;;
62151;SDS011;48139;47.474;19.034;2024-03-22T15:59:46;7.18;;;3.28;;
62151;SDS011;48139;47.474;19.034;2024-03-22T16:02:48;8.20;;;4.05;;
62151;SDS011;48139;47.474;19.034;2024-03-22T16:05:51;6.75;;;2.80;;
62151;SDS011;48139;47.474;19.034;2024-03-22T16:08:53;13.40;;;5.05;;
62151;SDS011;48139;47.474;19.034;2024-03-22T16:11:55;7.78;;;3.75;;
62151;SDS011;48139;47.474;19.034;2024-03-22T16:14:56;10.65;;;4.00;;
62151;SDS011;48139;47.474;19.034;2024-03-22T16:17:58;7.72;;;3.20;;
62151;SDS011;48139;47.474;19.034;2024-03-22T16:21:00;6.53;;;2.75;;
62151;SDS011;48139;47.474;19.034;2024-03-22T16:24:02;5.57;;;3.00;;
62151;SDS011;48139;47.474;19.034;2024-03-22T16:27:05;6.60;;;3.47;;
62151;SDS011;48139;47.474;19.034;2024-03-22T16:30:07;7.60;;;3.50;;
62151;SDS011;48139;47.474;19.034;2024-03-22T16:33:09;9.40;;;4.28;;
